European Causeway — C6RG7 — position and weather

sailwx.info

Track history (hours):
 
Tides and Currents Weather Stations Pressure Air Temp Water Temp Dewpoint Dewpoint Depression Visibility Wind Speed Wind Dir Waves Ship Positions

European Causeway

Operator: P & O Irish Sea

Last reported at 2018-Oct-24 04:30 UTC. Time now 2018-Oct-24 04:38 UTC.
Position N 55°02' W 005°07'.

Length 145 m; draft 5.5 m.

Type: Ship (hazmat cat A). MMSI: 311027000.

Date/timePositionNaut miles runAvg speedWind from/ knotsBaromVisibWave heightAir tempDewpointWater temp
2018-Oct-24 04:30N 55°02' W 005°07'716.5
2018-Oct-24 04:03N 54°59' W 005°19'118.0
2018-Oct-24 04:01N 54°59' W 005°20'917.0
2018-Oct-24 03:30N 54°55' W 005°34'817.9
2018-Oct-24 03:03N 54°52' W 005°47'115.3
2018-Oct-24 03:00N 54°52' W 005°48'1 1.4
2018-Oct-24 02:29N 54°51' W 005°48'0 0.0
2018-Oct-24 02:02N 54°51' W 005°48'0 0.0
2018-Oct-24 01:59N 54°51' W 005°48'0 0.0
2018-Oct-24 01:29N 54°51' W 005°48'0 0.0
2018-Oct-24 01:02N 54°51' W 005°48'0 0.0
2018-Oct-24 01:00N 54°51' W 005°48'4 9.2
2018-Oct-24 00:30N 54°53' W 005°41'817.6
2018-Oct-24 00:03N 54°57' W 005°29'117.6
2018-Oct-24 00:00N 54°57' W 005°28'816.7
2018-Oct-23 23:30N 55°01' W 005°14'713.3
2018-Oct-23 23:00N 54°59' W 005°03'2 3.2
2018-Oct-23 22:29N 54°58' W 005°01'0 0.0
2018-Oct-23 21:59N 54°58' W 005°01'0 0.0
2018-Oct-23 21:23N 54°58' W 005°01'0 0.1
2018-Oct-23 21:03N 54°58' W 005°01'0 0.1
2018-Oct-23 21:00N 54°58' W 005°01'611.6
2018-Oct-23 20:30N 55°01' W 005°09'816.8
2018-Oct-23 20:03N 54°58' W 005°21'117.4
2018-Oct-23 20:01N 54°57' W 005°22'918.8
2018-Oct-23 19:31N 54°54' W 005°37'714.8
2018-Oct-23 19:03N 54°51' W 005°48'0 0.1
2018-Oct-23 19:00N 54°51' W 005°48'0 0.0
2018-Oct-23 18:24N 54°51' W 005°48'0 0.0
2018-Oct-23 18:03N 54°51' W 005°48'0 0.0
2018-Oct-23 18:00N 54°51' W 005°48'0 0.0
2018-Oct-23 17:30N 54°51' W 005°48'612.5
2018-Oct-23 17:03N 54°54' W 005°40'117.0
2018-Oct-23 17:00N 54°54' W 005°38'816.9
2018-Oct-23 16:30N 54°58' W 005°25'817.3
2018-Oct-23 16:03N 55°01' W 005°13'117.5
2018-Oct-23 16:00N 55°01' W 005°11'713.4
2018-Oct-23 15:31N 54°58' W 005°01'0 0.5
2018-Oct-23 15:03N 54°58' W 005°01'0 0.0
2018-Oct-23 15:00N 54°58' W 005°01'0 0.0
2018-Oct-23 14:31N 54°58' W 005°01'1110.5
2018-Oct-23 13:30N 54°58' W 005°19'817.7
2018-Oct-23 13:03N 54°55' W 005°32'117.3
2018-Oct-23 13:00N 54°55' W 005°33'917.6
2018-Oct-23 12:30N 54°52' W 005°47'1 1.9
2018-Oct-23 12:02N 54°51' W 005°48'0 0.0
2018-Oct-23 11:53N 54°51' W 005°48'0 0.0
2018-Oct-23 11:29N 54°51' W 005°48'3 8.1
2018-Oct-23 11:03N 54°53' W 005°43'118.0
2018-Oct-23 11:00N 54°53' W 005°42'917.9
2018-Oct-23 10:30N 54°57' W 005°28'817.7
2018-Oct-23 10:03N 55°00' W 005°15'117.3
2018-Oct-23 10:00N 55°01' W 005°14'713.2
2018-Oct-23 09:30N 54°59' W 005°03'1 2.7
2018-Oct-23 08:57N 54°58' W 005°01'0 0.0
2018-Oct-23 08:30N 54°58' W 005°01'5 9.8
2018-Oct-23 08:00N 55°02' W 005°06'816.1
2018-Oct-23 07:30N 54°58' W 005°19'817.1
2018-Oct-23 07:03N 54°55' W 005°31'117.5
2018-Oct-23 07:00N 54°55' W 005°33'917.5
2018-Oct-23 06:29N 54°52' W 005°47'1 1.6
2018-Oct-23 05:55N 54°51' W 005°48'0 0.0
2018-Oct-23 05:28N 54°51' W 005°48'0 0.0
2018-Oct-23 05:03N 54°51' W 005°48'0 0.0
2018-Oct-23 05:00N 54°51' W 005°48'612.4
2018-Oct-23 04:30N 54°54' W 005°39'919.5
2018-Oct-23 04:03N 54°58' W 005°25'119.1
2018-Oct-23 04:00N 54°59' W 005°24'1019.1
2018-Oct-23 03:30N 55°02' W 005°08'612.2
2018-Oct-23 03:03N 54°58' W 005°01'0 0.3
2018-Oct-23 03:01N 54°58' W 005°01'0 0.0
2018-Oct-23 02:30N 54°58' W 005°01'0 0.0
2018-Oct-23 02:03N 54°58' W 005°01'0 0.3
2018-Oct-23 02:00N 54°58' W 005°01'0 0.0
2018-Oct-23 01:30N 54°58' W 005°01'0 0.0
2018-Oct-23 01:04N 54°58' W 005°01'0 0.0
2018-Oct-23 01:00N 54°58' W 005°01'6 9.5
2018-Oct-23 00:24N 55°02' W 005°08'718.9
2018-Oct-23 00:03N 54°59' W 005°19'119.1
2018-Oct-23 00:00N 54°58' W 005°20'918.2
2018-Oct-22 23:30N 54°55' W 005°35'817.6
2018-Oct-22 23:03N 54°51' W 005°48'113.2
2018-Oct-22 23:00N 54°51' W 005°48'0 0.2
2018-Oct-22 22:23N 54°51' W 005°48'0 0.0
2018-Oct-22 21:53N 54°51' W 005°48'0 0.0
2018-Oct-22 21:17N 54°51' W 005°48'0 0.0
2018-Oct-22 21:02N 54°51' W 005°48'0 0.0
2018-Oct-22 21:00N 54°51' W 005°48'510.3
2018-Oct-22 20:31N 54°54' W 005°40'817.8
2018-Oct-22 20:03N 54°57' W 005°28'117.2
2018-Oct-22 20:00N 54°58' W 005°27'917.3
2018-Oct-22 19:31N 55°01' W 005°13'613.7
2018-Oct-22 19:04N 54°59' W 005°03'115.0
2018-Oct-22 19:01N 54°58' W 005°02'1 1.6
2018-Oct-22 18:30N 54°58' W 005°01'0 0.0
2018-Oct-22 18:03N 54°58' W 005°01'0 0.0
2018-Oct-22 18:00N 54°58' W 005°01'0 0.1
2018-Oct-22 17:30N 54°58' W 005°01'511.1
2018-Oct-22 17:02N 55°02' W 005°07'017.2
2018-Oct-22 17:00N 55°02' W 005°08'917.6
2018-Oct-22 16:30N 54°58' W 005°22'918.8
2018-Oct-22 16:03N 54°54' W 005°36'118.3
2018-Oct-22 16:00N 54°54' W 005°37'714.1
2018-Oct-22 15:30N 54°51' W 005°48'0 0.1
2018-Oct-22 15:03N 54°51' W 005°48'0 0.0
2018-Oct-22 15:00N 54°51' W 005°48'0 0.0
2018-Oct-22 14:30N 54°51' W 005°48'1413.8
2018-Oct-22 13:31N 54°58' W 005°27'816.9
2018-Oct-22 13:04N 55°01' W 005°15'116.6
2018-Oct-22 13:01N 55°01' W 005°14'713.6
2018-Oct-22 12:31N 54°59' W 005°02'1 2.8
2018-Oct-22 12:02N 54°58' W 005°01'0 0.0
2018-Oct-22 11:59N 54°58' W 005°01'0 0.0
2018-Oct-22 11:30N 54°58' W 005°01'6 9.5
2018-Oct-22 10:55N 55°02' W 005°08'818.3
2018-Oct-22 10:30N 54°58' W 005°20'817.7
2018-Oct-22 10:03N 54°55' W 005°33'117.7
2018-Oct-22 10:01N 54°55' W 005°34'917.1
2018-Oct-22 09:30N 54°51' W 005°48'0 0.3
2018-Oct-22 08:59N 54°51' W 005°48'0 0.0
2018-Oct-22 08:31N 54°51' W 005°48'510.7
2018-Oct-22 08:03N 54°54' W 005°41'118.5
2018-Oct-22 08:00N 54°54' W 005°40'918.1
2018-Oct-22 07:30N 54°58' W 005°26'817.4
2018-Oct-22 07:03N 55°01' W 005°13'117.5
2018-Oct-22 07:00N 55°01' W 005°11'713.4
2018-Oct-22 06:30N 54°58' W 005°01'0 0.3
2018-Oct-22 06:03N 54°58' W 005°01'0 0.0
2018-Oct-22 06:00N 54°58' W 005°01'0 0.0
2018-Oct-22 05:30N 54°58' W 005°01'0 0.0
2018-Oct-22 05:03N 54°58' W 005°01'0 0.3
2018-Oct-22 05:00N 54°58' W 005°01'510.3
2018-Oct-22 04:30N 55°02' W 005°07'716.7
2018-Oct-22 04:03N 54°58' W 005°19'117.6
2018-Oct-22 04:00N 54°58' W 005°20'918.1
2018-Oct-22 03:30N 54°55' W 005°35'817.5
2018-Oct-22 03:03N 54°51' W 005°48'011.9
2018-Oct-22 03:00N 54°51' W 005°48'0 0.4
2018-Oct-22 02:25N 54°51' W 005°48'0 0.0
2018-Oct-22 01:58N 54°51' W 005°48'0 0.0
2018-Oct-22 01:28N 54°51' W 005°48'0 0.0
2018-Oct-22 01:01N 54°51' W 005°48'0 0.2
2018-Oct-22 00:59N 54°51' W 005°48'510.0
2018-Oct-22 00:30N 54°54' W 005°41'715.8
2018-Oct-22 00:04N 54°58' W 005°31'116.3
2018-Oct-22 00:01N 54°58' W 005°30'815.9
2018-Oct-21 23:31N 55°01' W 005°17'814.9
2018-Oct-21 22:57N 54°59' W 005°03'2 4.3
2018-Oct-21 22:30N 54°58' W 005°01'0 0.0
2018-Oct-21 22:03N 54°58' W 005°01'0 0.0
2018-Oct-21 22:00N 54°58' W 005°01'0 0.0
2018-Oct-21 21:30N 54°58' W 005°01'5 5.3
2018-Oct-21 20:30N 55°01' W 005°07'716.5
2018-Oct-21 20:04N 54°58' W 005°19'117.3
2018-Oct-21 20:01N 54°58' W 005°20'917.6
2018-Oct-21 19:31N 54°54' W 005°34'818.0
2018-Oct-21 19:03N 54°51' W 005°48'0 8.8
2018-Oct-21 19:01N 54°51' W 005°48'0 0.2
2018-Oct-21 18:29N 54°51' W 005°48'0 0.0
2018-Oct-21 18:02N 54°51' W 005°48'0 0.1
2018-Oct-21 17:59N 54°51' W 005°48'0 0.0
2018-Oct-21 17:30N 54°51' W 005°48'511.8
2018-Oct-21 17:03N 54°54' W 005°40'117.0
2018-Oct-21 17:00N 54°54' W 005°39'816.4
2018-Oct-21 16:30N 54°58' W 005°26'816.8
2018-Oct-21 16:03N 55°01' W 005°14'117.5
2018-Oct-21 16:00N 55°01' W 005°12'713.8
2018-Oct-21 15:30N 54°58' W 005°02'0 0.9
2018-Oct-21 15:01N 54°58' W 005°01'0 0.0
2018-Oct-21 14:58N 54°58' W 005°01'0 0.0
2018-Oct-21 14:30N 54°58' W 005°01'5 9.5
2018-Oct-21 13:59N 55°01' W 005°07'918.4
2018-Oct-21 13:30N 54°58' W 005°21'818.5
2018-Oct-21 13:03N 54°55' W 005°34'118.6
2018-Oct-21 13:00N 54°55' W 005°35'816.0
2018-Oct-21 12:31N 54°51' W 005°48'0 0.2
2018-Oct-21 12:01N 54°51' W 005°48'0 0.0
2018-Oct-21 11:49N 54°51' W 005°48'0 0.0
2018-Oct-21 11:28N 54°51' W 005°48'0 0.0
2018-Oct-21 11:01N 54°51' W 005°48'0 0.0
2018-Oct-21 10:58N 54°51' W 005°48'0 0.0
2018-Oct-21 10:28N 54°51' W 005°48'0 0.0
2018-Oct-21 10:01N 54°51' W 005°48'0 0.1
2018-Oct-21 09:58N 54°51' W 005°48'0 0.0
2018-Oct-21 09:28N 54°51' W 005°48'0 0.0
2018-Oct-21 09:01N 54°51' W 005°48'0 0.1
2018-Oct-21 08:58N 54°51' W 005°48'0 0.0
2018-Oct-21 08:25N 54°51' W 005°48'2 4.5
2018-Oct-21 08:03N 54°52' W 005°47'117.1
2018-Oct-21 08:00N 54°52' W 005°45'918.0
2018-Oct-21 07:30N 54°56' W 005°31'818.3
2018-Oct-21 07:03N 54°60' W 005°18'118.5
2018-Oct-21 07:01N 54°60' W 005°16'814.6
2018-Oct-21 06:29N 54°59' W 005°03'2 3.7
2018-Oct-21 05:59N 54°58' W 005°01'0 0.0
2018-Oct-21 05:29N 54°58' W 005°01'0 0.0
2018-Oct-21 05:02N 54°58' W 005°01'0 0.2
2018-Oct-21 04:59N 54°58' W 005°01'0 0.0
2018-Oct-21 04:23N 54°58' W 005°01'0 0.0
2018-Oct-21 04:02N 54°58' W 005°01'0 0.1
2018-Oct-21 03:56N 54°58' W 005°01'0 0.0
2018-Oct-21 03:29N 54°58' W 005°01'0 0.0
2018-Oct-21 03:02N 54°58' W 005°01'0 0.2
2018-Oct-21 02:59N 54°58' W 005°01'0 0.0
2018-Oct-21 02:29N 54°58' W 005°01'0 0.0
2018-Oct-21 01:59N 54°58' W 005°01'0 0.0
2018-Oct-21 01:29N 54°58' W 005°01'0 0.0
2018-Oct-21 01:02N 54°58' W 005°01'0 0.2
2018-Oct-21 00:59N 54°58' W 005°01'0 0.0
2018-Oct-21 00:29N 54°58' W 005°01'0 0.0
2018-Oct-20 23:59N 54°58' W 005°01'0 0.0
2018-Oct-20 23:26N 54°58' W 005°01'0 0.0
2018-Oct-20 22:56N 54°58' W 005°01'0 0.0
2018-Oct-20 22:29N 54°58' W 005°01'0 0.0
2018-Oct-20 22:02N 54°58' W 005°01'0 0.0
2018-Oct-20 21:53N 54°58' W 005°01'0 0.0
2018-Oct-20 21:29N 54°58' W 005°01'0 0.0
2018-Oct-20 21:03N 54°58' W 005°01'0 0.5
2018-Oct-20 21:00N 54°58' W 005°01'612.5
2018-Oct-20 20:30N 55°01' W 005°11'920.7
2018-Oct-20 20:03N 54°57' W 005°25'120.6
2018-Oct-20 20:00N 54°56' W 005°26'1020.8
2018-Oct-20 19:30N 54°53' W 005°43'3 7.0
2018-Oct-20 19:03N 54°51' W 005°48'0 0.0
2018-Oct-20 19:00N 54°51' W 005°48'0 0.0
2018-Oct-20 18:30N 54°51' W 005°48'0 0.0
2018-Oct-20 18:03N 54°51' W 005°48'0 0.0
2018-Oct-20 18:00N 54°51' W 005°48'0 0.0
2018-Oct-20 17:30N 54°51' W 005°48'2 4.8
2018-Oct-20 17:04N 54°52' W 005°45'117.2
2018-Oct-20 17:00N 54°53' W 005°44'917.5
2018-Oct-20 16:30N 54°57' W 005°30'817.7
2018-Oct-20 16:03N 54°60' W 005°18'117.6
2018-Oct-20 16:00N 55°00' W 005°16'714.6
2018-Oct-20 15:30N 54°59' W 005°03'2 4.9
2018-Oct-20 15:03N 54°58' W 005°01'0 0.0
2018-Oct-20 14:45N 54°58' W 005°01'0 0.0
2018-Oct-20 14:30N 54°58' W 005°01'1010.3
2018-Oct-20 13:30N 54°59' W 005°19'818.1
2018-Oct-20 13:04N 54°56' W 005°32'118.2
2018-Oct-20 13:00N 54°55' W 005°33'917.8
2018-Oct-20 12:30N 54°52' W 005°48'1 1.5
2018-Oct-20 12:02N 54°51' W 005°48'0 0.0
2018-Oct-20 11:56N 54°51' W 005°48'0 0.0
2018-Oct-20 11:30N 54°51' W 005°48'4 9.5
2018-Oct-20 11:04N 54°53' W 005°42'115.7
2018-Oct-20 11:00N 54°54' W 005°41'816.1
2018-Oct-20 10:30N 54°57' W 005°28'716.6
2018-Oct-20 10:04N 55°00' W 005°16'116.6
2018-Oct-20 10:00N 55°01' W 005°15'713.9
2018-Oct-20 09:30N 54°59' W 005°03'2 3.7
2018-Oct-20 09:02N 54°58' W 005°01'0 0.0
2018-Oct-20 08:56N 54°58' W 005°01'0 0.0
2018-Oct-20 08:29N 54°58' W 005°01'5 9.5
2018-Oct-20 07:57N 55°02' W 005°07'717.1
2018-Oct-20 07:30N 54°59' W 005°19'716.0
2018-Oct-20 07:03N 54°56' W 005°30'116.5
2018-Oct-20 07:00N 54°55' W 005°32'816.8
2018-Oct-20 06:30N 54°52' W 005°45'2 4.0
2018-Oct-20 06:01N 54°51' W 005°48'0 0.0
2018-Oct-20 05:58N 54°51' W 005°48'0 0.0
2018-Oct-20 05:28N 54°51' W 005°48'0 0.0
2018-Oct-20 05:03N 54°51' W 005°48'0 0.1
2018-Oct-20 05:00N 54°51' W 005°48'510.2
2018-Oct-20 04:30N 54°54' W 005°40'816.8
2018-Oct-20 04:03N 54°57' W 005°29'117.1
2018-Oct-20 04:00N 54°57' W 005°27'917.5
2018-Oct-20 03:30N 55°01' W 005°13'613.6
2018-Oct-20 03:03N 54°59' W 005°03'113.4
2018-Oct-20 03:01N 54°59' W 005°02'1 2.3
2018-Oct-20 02:27N 54°58' W 005°01'0 0.0
2018-Oct-20 02:03N 54°58' W 005°01'0 0.0
2018-Oct-20 02:00N 54°58' W 005°01'0 0.0
2018-Oct-20 01:30N 54°58' W 005°01'0 0.0
2018-Oct-20 01:03N 54°58' W 005°01'0 0.2
2018-Oct-20 01:00N 54°58' W 005°01'5 8.7
2018-Oct-20 00:24N 55°02' W 005°07'618.0
2018-Oct-20 00:03N 54°59' W 005°17'119.3
2018-Oct-20 00:00N 54°59' W 005°19'918.5
2018-Oct-19 23:30N 54°55' W 005°33'818.0
2018-Oct-19 23:03N 54°52' W 005°46'116.1
2018-Oct-19 23:01N 54°52' W 005°48'1 1.4
2018-Oct-19 22:28N 54°51' W 005°48'0 0.0
2018-Oct-19 22:01N 54°51' W 005°48'0 0.2
2018-Oct-19 21:58N 54°51' W 005°48'0 0.0
2018-Oct-19 21:28N 54°51' W 005°48'0 0.0
2018-Oct-19 21:01N 54°51' W 005°48'4 8.2
2018-Oct-19 20:30N 54°53' W 005°42'817.9
2018-Oct-19 20:03N 54°57' W 005°30'118.1
2018-Oct-19 20:00N 54°57' W 005°28'917.9
2018-Oct-19 19:30N 55°01' W 005°14'714.5
2018-Oct-19 19:03N 54°59' W 005°03'115.5
2018-Oct-19 19:00N 54°58' W 005°02'1 2.0
2018-Oct-19 18:30N 54°58' W 005°01'0 0.0
2018-Oct-19 18:00N 54°58' W 005°01'0 0.0
2018-Oct-19 17:30N 54°58' W 005°01'5 9.3
2018-Oct-19 16:55N 55°01' W 005°08'717.1
2018-Oct-19 16:30N 54°58' W 005°19'818.0
2018-Oct-19 16:03N 54°55' W 005°32'118.3
2018-Oct-19 16:00N 54°55' W 005°33'917.9
2018-Oct-19 15:30N 54°51' W 005°48'0 0.8
2018-Oct-19 14:59N 54°51' W 005°48'5 4.8
2018-Oct-19 14:00N 54°53' W 005°41'917.3
2018-Oct-19 13:30N 54°57' W 005°28'817.2
2018-Oct-19 13:03N 55°00' W 005°15'117.5
2018-Oct-19 13:00N 55°01' W 005°14'714.0
2018-Oct-19 12:31N 54°59' W 005°02'1 2.3
2018-Oct-19 12:00N 54°58' W 005°01'0 0.0
2018-Oct-19 11:30N 54°58' W 005°01'610.2
2018-Oct-19 10:57N 55°02' W 005°08'818.9
2018-Oct-19 10:30N 54°58' W 005°22'818.4
2018-Oct-19 10:03N 54°55' W 005°35'118.8
2018-Oct-19 10:00N 54°54' W 005°36'714.9
2018-Oct-19 09:30N 54°51' W 005°48'0 0.1
2018-Oct-19 08:58N 54°51' W 005°48'0 0.0
2018-Oct-19 08:30N 54°51' W 005°48'511.9
2018-Oct-19 08:03N 54°54' W 005°40'117.4
2018-Oct-19 08:00N 54°54' W 005°39'917.1
2018-Oct-19 07:30N 54°58' W 005°25'817.0
2018-Oct-19 07:03N 55°01' W 005°13'116.8
2018-Oct-19 07:00N 55°01' W 005°12'713.8
2018-Oct-19 06:30N 54°58' W 005°01'0 0.1
2018-Oct-19 06:03N 54°58' W 005°01'0 0.0
2018-Oct-19 06:00N 54°58' W 005°01'0 0.0
2018-Oct-19 05:30N 54°58' W 005°01'0 0.0
2018-Oct-19 05:03N 54°58' W 005°01'0 0.3
2018-Oct-19 05:00N 54°58' W 005°01'5 9.9
2018-Oct-19 04:30N 55°02' W 005°07'716.8
2018-Oct-19 04:03N 54°58' W 005°19'115.7
2018-Oct-19 04:00N 54°58' W 005°20'816.9
2018-Oct-19 03:31N 54°55' W 005°33'918.8
2018-Oct-19 03:03N 54°52' W 005°47'113.3
2018-Oct-19 02:59N 54°51' W 005°48'0 0.4
2018-Oct-19 02:30N 54°51' W 005°48'0 0.0
2018-Oct-19 02:03N 54°51' W 005°48'0 0.1
2018-Oct-19 02:00N 54°51' W 005°48'0 0.0
2018-Oct-19 01:30N 54°51' W 005°48'0 0.0
2018-Oct-19 01:03N 54°51' W 005°48'0 0.1
2018-Oct-19 01:01N 54°51' W 005°48'4 7.2
2018-Oct-19 00:30N 54°53' W 005°43'817.7
2018-Oct-19 00:03N 54°57' W 005°31'117.2
2018-Oct-19 00:01N 54°58' W 005°30'917.5
2018-Oct-18 23:30N 55°01' W 005°16'714.9
2018-Oct-18 23:01N 54°59' W 005°03'015.7
2018-Oct-18 23:00N 54°59' W 005°03'2 3.4
2018-Oct-18 22:30N 54°58' W 005°01'0 0.0
2018-Oct-18 22:03N 54°58' W 005°01'0 0.0
2018-Oct-18 22:00N 54°58' W 005°01'0 0.0
2018-Oct-18 21:30N 54°58' W 005°01'0 0.0
2018-Oct-18 21:03N 54°58' W 005°01'0 0.0
2018-Oct-18 21:00N 54°58' W 005°01'610.0
2018-Oct-18 20:27N 55°01' W 005°08'717.7
2018-Oct-18 20:03N 54°59' W 005°19'118.5
2018-Oct-18 20:00N 54°58' W 005°20'918.4
2018-Oct-18 19:30N 54°54' W 005°35'817.6
2018-Oct-18 19:03N 54°51' W 005°48'0 2.2
2018-Oct-18 18:52N 54°51' W 005°48'0 0.0
2018-Oct-18 18:25N 54°51' W 005°48'0 0.0
2018-Oct-18 17:58N 54°51' W 005°48'0 0.0
2018-Oct-18 17:30N 54°51' W 005°48'512.0
2018-Oct-18 17:03N 54°54' W 005°40'117.7
2018-Oct-18 17:00N 54°54' W 005°39'917.4
2018-Oct-18 16:30N 54°58' W 005°25'817.6
2018-Oct-18 16:03N 55°01' W 005°12'117.8
2018-Oct-18 16:00N 55°01' W 005°11'713.6
2018-Oct-18 15:30N 54°58' W 005°01'0 0.0
2018-Oct-18 15:00N 54°58' W 005°01'0 0.0
2018-Oct-18 14:31N 54°58' W 005°01'510.1
2018-Oct-18 14:00N 55°01' W 005°07'917.7
2018-Oct-18 13:31N 54°58' W 005°21'818.1
2018-Oct-18 13:03N 54°55' W 005°34'118.2
2018-Oct-18 13:01N 54°55' W 005°35'816.0
2018-Oct-18 12:31N 54°51' W 005°48'0 0.2
2018-Oct-18 12:03N 54°51' W 005°48'0 0.0
2018-Oct-18 12:00N 54°51' W 005°48'0 0.0
2018-Oct-18 11:30N 54°51' W 005°48'511.0
2018-Oct-18 11:03N 54°54' W 005°41'119.2
2018-Oct-18 11:00N 54°54' W 005°39'918.6
2018-Oct-18 10:30N 54°58' W 005°24'818.6
2018-Oct-18 10:03N 55°01' W 005°11'118.4
2018-Oct-18 10:00N 55°02' W 005°10'612.4
2018-Oct-18 09:29N 54°58' W 005°01'0 0.0
2018-Oct-18 08:58N 54°58' W 005°01'0 0.0
2018-Oct-18 08:30N 54°58' W 005°01'610.4
2018-Oct-18 07:57N 55°02' W 005°08'818.1
2018-Oct-18 07:31N 54°58' W 005°21'818.3
2018-Oct-18 07:03N 54°55' W 005°34'118.0
2018-Oct-18 07:00N 54°54' W 005°36'815.7
2018-Oct-18 06:31N 54°51' W 005°48'0 0.1
2018-Oct-18 06:01N 54°51' W 005°48'0 0.1
2018-Oct-18 05:58N 54°51' W 005°48'0 0.0
2018-Oct-18 05:28N 54°51' W 005°48'0 0.0
2018-Oct-18 04:58N 54°51' W 005°48'4 9.4
2018-Oct-18 04:30N 54°53' W 005°42'920.0
2018-Oct-18 04:03N 54°57' W 005°28'120.0
2018-Oct-18 04:00N 54°58' W 005°26'1020.0
2018-Oct-18 03:30N 55°01' W 005°10'613.7
2018-Oct-18 03:03N 54°58' W 005°01'0 0.4
2018-Oct-18 02:56N 54°58' W 005°01'0 0.0
2018-Oct-18 02:29N 54°58' W 005°01'0 0.0
2018-Oct-18 02:02N 54°58' W 005°01'0 0.0
2018-Oct-18 01:56N 54°58' W 005°01'0 0.0
2018-Oct-18 01:29N 54°58' W 005°01'0 0.0
2018-Oct-18 01:00N 54°58' W 005°01'510.6
2018-Oct-18 00:30N 55°02' W 005°07'817.5
2018-Oct-18 00:03N 54°58' W 005°20'118.0
2018-Oct-18 00:00N 54°58' W 005°21'918.1
2018-Oct-17 23:31N 54°54' W 005°36'817.1
2018-Oct-17 23:03N 54°51' W 005°48'0 2.1
2018-Oct-17 22:58N 54°51' W 005°48'0 0.0
2018-Oct-17 22:25N 54°51' W 005°48'0 0.0
2018-Oct-17 22:01N 54°51' W 005°48'0 0.0
2018-Oct-17 21:58N 54°51' W 005°48'0 0.0
2018-Oct-17 21:28N 54°51' W 005°48'0 0.0
2018-Oct-17 21:01N 54°51' W 005°48'0 0.0
2018-Oct-17 20:59N 54°51' W 005°48'510.0
2018-Oct-17 20:30N 54°53' W 005°41'817.9
2018-Oct-17 20:03N 54°57' W 005°29'117.9
2018-Oct-17 20:00N 54°58' W 005°28'917.7
2018-Oct-17 19:30N 55°01' W 005°13'714.5
2018-Oct-17 19:03N 54°59' W 005°03'116.9
2018-Oct-17 19:00N 54°58' W 005°02'1 1.0
2018-Oct-17 18:22N 54°58' W 005°01'0 0.0
2018-Oct-17 17:59N 54°58' W 005°01'0 0.0
2018-Oct-17 17:30N 54°58' W 005°01'510.2
2018-Oct-17 17:01N 55°01' W 005°07'017.2
2018-Oct-17 17:00N 55°01' W 005°07'917.6
2018-Oct-17 16:30N 54°58' W 005°21'818.4
2018-Oct-17 16:03N 54°55' W 005°34'118.8
2018-Oct-17 16:01N 54°54' W 005°36'815.7
2018-Oct-17 15:31N 54°51' W 005°48'0 0.1
2018-Oct-17 14:58N 54°51' W 005°48'5 5.1
2018-Oct-17 14:00N 54°54' W 005°41'917.4
2018-Oct-17 13:30N 54°57' W 005°27'817.5
2018-Oct-17 13:03N 55°01' W 005°15'117.6
2018-Oct-17 13:00N 55°01' W 005°13'713.7
2018-Oct-17 12:31N 54°59' W 005°02'1 2.4
2018-Oct-17 12:03N 54°58' W 005°01'0 0.0
2018-Oct-17 12:00N 54°58' W 005°01'0 0.0
2018-Oct-17 11:31N 54°58' W 005°01'5 9.5
2018-Oct-17 10:58N 55°01' W 005°07'817.7
2018-Oct-17 10:30N 54°58' W 005°20'818.1
2018-Oct-17 10:03N 54°55' W 005°33'118.3
2018-Oct-17 10:00N 54°55' W 005°35'816.9
2018-Oct-17 09:30N 54°51' W 005°48'0 0.3
2018-Oct-17 09:03N 54°51' W 005°48'0 0.0
2018-Oct-17 09:00N 54°51' W 005°48'0 0.0
2018-Oct-17 08:30N 54°51' W 005°48'510.2
2018-Oct-17 08:03N 54°53' W 005°41'117.8
2018-Oct-17 08:01N 54°54' W 005°40'917.5
2018-Oct-17 07:31N 54°58' W 005°26'817.4
2018-Oct-17 07:04N 55°01' W 005°14'117.1
2018-Oct-17 07:01N 55°01' W 005°12'714.2
2018-Oct-17 06:30N 54°58' W 005°01'0 0.7
2018-Oct-17 06:03N 54°58' W 005°01'0 0.0
2018-Oct-17 06:00N 54°58' W 005°01'0 0.0
2018-Oct-17 05:31N 54°58' W 005°01'0 0.0
2018-Oct-17 05:02N 54°58' W 005°01'0 0.0
2018-Oct-17 05:00N 54°58' W 005°01'6 9.2
2018-Oct-17 04:23N 55°02' W 005°08'617.4
2018-Oct-17 04:03N 54°59' W 005°17'118.1
2018-Oct-17 04:00N 54°58' W 005°18'918.3
2018-Oct-17 03:30N 54°55' W 005°33'919.0
2018-Oct-17 03:03N 54°52' W 005°47'114.6
2018-Oct-17 03:00N 54°51' W 005°48'1 1.1
2018-Oct-17 02:30N 54°51' W 005°48'0 0.0
2018-Oct-17 02:03N 54°51' W 005°48'0 0.0
2018-Oct-17 02:00N 54°51' W 005°48'0 0.0
2018-Oct-17 01:30N 54°51' W 005°48'0 0.0
2018-Oct-17 01:03N 54°51' W 005°48'0 0.0
2018-Oct-17 01:00N 54°51' W 005°48'5 9.0
2018-Oct-17 00:30N 54°53' W 005°41'817.4
2018-Oct-17 00:03N 54°57' W 005°29'117.6
2018-Oct-17 00:01N 54°57' W 005°28'917.6
2018-Oct-16 23:31N 55°01' W 005°14'613.6
2018-Oct-16 23:03N 54°59' W 005°03'012.4
2018-Oct-16 23:00N 54°59' W 005°02'1 2.8
2018-Oct-16 22:30N 54°58' W 005°01'0 0.0
2018-Oct-16 22:03N 54°58' W 005°01'0 0.0
2018-Oct-16 22:00N 54°58' W 005°01'0 0.0
2018-Oct-16 21:30N 54°58' W 005°01'0 0.0
2018-Oct-16 21:03N 54°58' W 005°01'0 0.7
2018-Oct-16 21:00N 54°58' W 005°01'611.2
2018-Oct-16 20:30N 55°02' W 005°08'817.1
2018-Oct-16 20:04N 54°58' W 005°20'118.3
2018-Oct-16 20:01N 54°58' W 005°21'917.7
2018-Oct-16 19:31N 54°55' W 005°36'816.9
2018-Oct-16 19:03N 54°51' W 005°48'0 6.7
2018-Oct-16 19:00N 54°51' W 005°48'0 0.2
2018-Oct-16 18:29N 54°51' W 005°48'0 0.0
2018-Oct-16 17:56N 54°51' W 005°48'0 0.0
2018-Oct-16 17:29N 54°51' W 005°48'511.1
2018-Oct-16 17:03N 54°53' W 005°41'117.5
2018-Oct-16 17:00N 54°54' W 005°40'917.2
2018-Oct-16 16:30N 54°58' W 005°26'817.2
2018-Oct-16 16:03N 55°01' W 005°14'117.3
2018-Oct-16 16:00N 55°01' W 005°13'714.0
2018-Oct-16 15:31N 54°58' W 005°01'0 0.9
2018-Oct-16 15:00N 54°58' W 005°01'0 0.0
2018-Oct-16 14:30N 54°58' W 005°01'5 9.4
2018-Oct-16 13:59N 55°02' W 005°07'818.1
2018-Oct-16 13:31N 54°58' W 005°20'919.0
2018-Oct-16 13:03N 54°55' W 005°34'119.6
2018-Oct-16 13:00N 54°55' W 005°36'815.9
2018-Oct-16 12:30N 54°51' W 005°48'0 0.2
2018-Oct-16 12:02N 54°51' W 005°48'0 0.0
2018-Oct-16 11:59N 54°51' W 005°48'0 0.0
2018-Oct-16 11:30N 54°51' W 005°48'4 9.9
2018-Oct-16 11:03N 54°53' W 005°42'117.3
2018-Oct-16 11:00N 54°54' W 005°40'917.2
2018-Oct-16 10:31N 54°57' W 005°27'817.1
2018-Oct-16 10:03N 55°01' W 005°15'117.1
2018-Oct-16 10:00N 55°01' W 005°13'713.1
2018-Oct-16 09:31N 54°59' W 005°03'2 3.4
2018-Oct-16 09:04N 54°58' W 005°01'0 0.0
2018-Oct-16 09:00N 54°58' W 005°01'0 0.0
2018-Oct-16 08:30N 54°58' W 005°01'5 8.4
2018-Oct-16 07:52N 55°02' W 005°07'720.0
2018-Oct-16 07:30N 54°59' W 005°19'919.9
2018-Oct-16 07:03N 54°54' W 005°33'119.8
2018-Oct-16 07:01N 54°54' W 005°34'816.2
2018-Oct-16 06:30N 54°51' W 005°48'0 0.7
2018-Oct-16 06:03N 54°51' W 005°48'0 0.0
2018-Oct-16 06:00N 54°51' W 005°48'0 0.0
2018-Oct-16 05:30N 54°51' W 005°48'0 0.0
2018-Oct-16 05:03N 54°51' W 005°48'0 0.0
2018-Oct-16 05:00N 54°51' W 005°48'5 9.3
2018-Oct-16 04:30N 54°54' W 005°41'817.3
2018-Oct-16 04:03N 54°57' W 005°29'117.2
2018-Oct-16 04:00N 54°57' W 005°28'917.6
2018-Oct-16 03:30N 55°01' W 005°14'714.3
2018-Oct-16 03:03N 54°59' W 005°03'115.1
2018-Oct-16 03:00N 54°59' W 005°02'1 2.5
2018-Oct-16 02:30N 54°58' W 005°01'0 0.0
2018-Oct-16 02:03N 54°58' W 005°01'0 0.0
2018-Oct-16 02:00N 54°58' W 005°01'0 0.0
2018-Oct-16 01:30N 54°58' W 005°01'0 0.0
2018-Oct-16 01:03N 54°58' W 005°01'0 0.9
2018-Oct-16 01:00N 54°58' W 005°01'611.4
2018-Oct-16 00:30N 55°02' W 005°08'817.3
2018-Oct-16 00:04N 54°58' W 005°20'118.0
2018-Oct-16 00:01N 54°58' W 005°22'918.0
2018-Oct-15 23:30N 54°54' W 005°36'716.4
2018-Oct-15 23:03N 54°51' W 005°48'0 1.0
2018-Oct-15 23:00N 54°51' W 005°48'0 0.1
2018-Oct-15 22:30N 54°51' W 005°48'0 0.0
2018-Oct-15 22:03N 54°51' W 005°48'0 0.0
2018-Oct-15 22:00N 54°51' W 005°48'0 0.0
2018-Oct-15 21:30N 54°51' W 005°48'0 0.0
2018-Oct-15 21:03N 54°51' W 005°48'0 0.0
2018-Oct-15 21:00N 54°51' W 005°48'4 8.0
2018-Oct-15 20:30N 54°53' W 005°42'818.2
2018-Oct-15 20:03N 54°57' W 005°30'118.3
2018-Oct-15 20:00N 54°57' W 005°28'918.0
2018-Oct-15 19:30N 55°01' W 005°14'714.7
2018-Oct-15 19:03N 54°59' W 005°03'116.1
2018-Oct-15 19:00N 54°58' W 005°02'1 1.7
2018-Oct-15 18:30N 54°58' W 005°01'0 0.0
2018-Oct-15 18:03N 54°58' W 005°01'0 0.0
2018-Oct-15 18:00N 54°58' W 005°01'0 0.0
2018-Oct-15 17:30N 54°58' W 005°01'510.7
2018-Oct-15 17:00N 55°01' W 005°08'1019.6
2018-Oct-15 16:31N 54°58' W 005°23'919.8
2018-Oct-15 16:04N 54°54' W 005°37'119.3
2018-Oct-15 16:00N 54°54' W 005°39'611.9
2018-Oct-15 15:30N 54°51' W 005°48'0 0.0
2018-Oct-15 15:01N 54°51' W 005°48'0 0.0
2018-Oct-15 14:55N 54°51' W 005°48'0 0.0
2018-Oct-15 14:29N 54°51' W 005°48'511.0
2018-Oct-15 14:01N 54°54' W 005°40'917.7
2018-Oct-15 13:30N 54°58' W 005°26'817.9
2018-Oct-15 13:03N 55°02' W 005°14'118.2
2018-Oct-15 13:00N 55°02' W 005°13'714.3
2018-Oct-15 12:30N 54°58' W 005°02'1 1.4
2018-Oct-15 12:02N 54°58' W 005°01'0 0.0
2018-Oct-15 11:53N 54°58' W 005°01'0 0.0
2018-Oct-15 11:30N 54°58' W 005°01'5 9.2
2018-Oct-15 10:58N 55°01' W 005°07'817.0
2018-Oct-15 10:30N 54°58' W 005°19'817.9
2018-Oct-15 10:03N 54°55' W 005°32'118.7
2018-Oct-15 10:00N 54°55' W 005°34'917.5
2018-Oct-15 09:30N 54°51' W 005°48'0 0.8
2018-Oct-15 09:02N 54°51' W 005°48'0 0.0
2018-Oct-15 08:59N 54°51' W 005°48'0 0.0
2018-Oct-15 08:29N 54°51' W 005°48'3 6.2
2018-Oct-15 08:03N 54°53' W 005°45'118.4
2018-Oct-15 08:00N 54°53' W 005°43'816.6
2018-Oct-15 07:30N 54°57' W 005°30'817.9
2018-Oct-15 07:03N 55°00' W 005°17'118.1
2018-Oct-15 07:01N 55°00' W 005°16'814.9
2018-Oct-15 06:30N 54°59' W 005°03'2 4.2
2018-Oct-15 06:03N 54°58' W 005°01'0 0.0
2018-Oct-15 06:00N 54°58' W 005°01'0 0.0
2018-Oct-15 05:30N 54°58' W 005°01'0 0.0
2018-Oct-15 05:03N 54°58' W 005°01'0 1.4
2018-Oct-15 05:00N 54°58' W 005°01'611.2
2018-Oct-15 04:30N 55°02' W 005°08'818.2
2018-Oct-15 04:03N 54°58' W 005°21'118.2
2018-Oct-15 04:00N 54°58' W 005°22'917.8
2018-Oct-15 03:30N 54°54' W 005°37'715.7
2018-Oct-15 03:03N 54°51' W 005°48'0 1.5
2018-Oct-15 03:00N 54°51' W 005°48'0 0.2
2018-Oct-15 02:30N 54°51' W 005°48'0 0.0
2018-Oct-15 02:03N 54°51' W 005°48'0 0.1
2018-Oct-15 02:00N 54°51' W 005°48'0 0.0
2018-Oct-15 01:30N 54°51' W 005°48'0 0.0
2018-Oct-15 01:03N 54°51' W 005°48'0 0.0
2018-Oct-15 01:00N 54°51' W 005°48'4 7.1
2018-Oct-15 00:30N 54°53' W 005°43'715.0
2018-Oct-15 00:03N 54°56' W 005°32'115.8
2018-Oct-15 00:00N 54°56' W 005°31'917.5
2018-Oct-14 23:31N 54°60' W 005°17'814.1
2018-Oct-14 22:56N 54°59' W 005°03'2 4.6
2018-Oct-14 22:30N 54°58' W 005°01'0 0.0
2018-Oct-14 22:03N 54°58' W 005°01'0 0.0
2018-Oct-14 22:00N 54°58' W 005°01'0 0.0
2018-Oct-14 21:30N 54°58' W 005°01'0 0.0
2018-Oct-14 21:03N 54°58' W 005°01'0 1.6
2018-Oct-14 21:00N 54°58' W 005°01'611.1
2018-Oct-14 20:30N 55°02' W 005°08'817.4
2018-Oct-14 20:03N 54°58' W 005°20'118.1
2018-Oct-14 20:00N 54°58' W 005°22'918.0
2018-Oct-14 19:30N 54°55' W 005°36'716.5
2018-Oct-14 19:03N 54°51' W 005°48'0 3.1
2018-Oct-14 19:01N 54°51' W 005°48'0 0.1
2018-Oct-14 18:29N 54°51' W 005°48'0 0.0
2018-Oct-14 18:02N 54°51' W 005°48'0 0.0
2018-Oct-14 17:56N 54°51' W 005°48'0 0.0
2018-Oct-14 17:27N 54°51' W 005°48'4 9.4
2018-Oct-14 17:03N 54°53' W 005°43'118.8
2018-Oct-14 17:00N 54°53' W 005°41'918.7
2018-Oct-14 16:30N 54°57' W 005°27'818.1
2018-Oct-14 16:03N 55°01' W 005°14'117.5
2018-Oct-14 16:00N 55°01' W 005°12'714.3
2018-Oct-14 15:30N 54°58' W 005°01'0 0.5
2018-Oct-14 15:02N 54°58' W 005°01'0 0.0
2018-Oct-14 14:59N 54°58' W 005°01'0 0.0
2018-Oct-14 14:29N 54°58' W 005°01'5 8.8
2018-Oct-14 13:53N 55°02' W 005°07'819.9
2018-Oct-14 13:31N 54°58' W 005°19'920.2
2018-Oct-14 13:03N 54°55' W 005°34'120.2
2018-Oct-14 13:01N 54°54' W 005°36'815.8
2018-Oct-14 12:31N 54°51' W 005°48'0 0.1
2018-Oct-14 12:02N 54°51' W 005°48'0 0.1
2018-Oct-14 11:56N 54°51' W 005°48'0 0.0
2018-Oct-14 11:26N 54°51' W 005°48'0 0.0
2018-Oct-14 10:56N 54°51' W 005°48'0 0.0
2018-Oct-14 10:17N 54°51' W 005°48'0 0.0
2018-Oct-14 10:02N 54°51' W 005°48'0 0.2
2018-Oct-14 09:59N 54°51' W 005°48'0 0.0
2018-Oct-14 09:29N 54°51' W 005°48'0 0.0
2018-Oct-14 09:02N 54°51' W 005°48'0 0.1
2018-Oct-14 08:59N 54°51' W 005°48'0 0.0
2018-Oct-14 08:29N 54°51' W 005°48'2 5.6
2018-Oct-14 08:03N 54°53' W 005°45'118.2
2018-Oct-14 08:00N 54°53' W 005°43'918.1
2018-Oct-14 07:30N 54°57' W 005°29'817.6
2018-Oct-14 07:03N 55°00' W 005°17'117.6
2018-Oct-14 07:00N 55°00' W 005°15'714.6
2018-Oct-14 06:30N 54°59' W 005°03'2 4.0
2018-Oct-14 06:03N 54°58' W 005°01'0 0.0
2018-Oct-14 06:00N 54°58' W 005°01'0 0.0
2018-Oct-14 05:30N 54°58' W 005°01'0 0.0
2018-Oct-14 05:03N 54°58' W 005°01'0 0.0
2018-Oct-14 05:00N 54°58' W 005°01'0 0.0
2018-Oct-14 04:30N 54°58' W 005°01'  
Track history (hours):
 
Tides and Currents Weather Stations Pressure Air Temp Water Temp Dewpoint Dewpoint Depression Visibility Wind Speed Wind Dir Waves Ship Positions

European Causeway

Operator: P & O Irish Sea

Last reported at 2018-Oct-24 04:30 UTC. Time now 2018-Oct-24 04:38 UTC.
Position N 55°02' W 005°07'.

Length 145 m; draft 5.5 m.

Type: Ship (hazmat cat A). MMSI: 311027000.

Date/timePositionNaut miles runAvg speedWind from/ knotsBaromVisibWave heightAir tempDewpointWater temp
2018-Oct-24 04:30N 55°02' W 005°07'716.5
2018-Oct-24 04:03N 54°59' W 005°19'118.0
2018-Oct-24 04:01N 54°59' W 005°20'917.0
2018-Oct-24 03:30N 54°55' W 005°34'817.9
2018-Oct-24 03:03N 54°52' W 005°47'115.3
2018-Oct-24 03:00N 54°52' W 005°48'1 1.4
2018-Oct-24 02:29N 54°51' W 005°48'0 0.0
2018-Oct-24 02:02N 54°51' W 005°48'0 0.0
2018-Oct-24 01:59N 54°51' W 005°48'0 0.0
2018-Oct-24 01:29N 54°51' W 005°48'0 0.0
2018-Oct-24 01:02N 54°51' W 005°48'0 0.0
2018-Oct-24 01:00N 54°51' W 005°48'4 9.2
2018-Oct-24 00:30N 54°53' W 005°41'817.6
2018-Oct-24 00:03N 54°57' W 005°29'117.6
2018-Oct-24 00:00N 54°57' W 005°28'816.7
2018-Oct-23 23:30N 55°01' W 005°14'713.3
2018-Oct-23 23:00N 54°59' W 005°03'2 3.2
2018-Oct-23 22:29N 54°58' W 005°01'0 0.0
2018-Oct-23 21:59N 54°58' W 005°01'0 0.0
2018-Oct-23 21:23N 54°58' W 005°01'0 0.1
2018-Oct-23 21:03N 54°58' W 005°01'0 0.1
2018-Oct-23 21:00N 54°58' W 005°01'611.6
2018-Oct-23 20:30N 55°01' W 005°09'816.8
2018-Oct-23 20:03N 54°58' W 005°21'117.4
2018-Oct-23 20:01N 54°57' W 005°22'918.8
2018-Oct-23 19:31N 54°54' W 005°37'714.8
2018-Oct-23 19:03N 54°51' W 005°48'0 0.1
2018-Oct-23 19:00N 54°51' W 005°48'0 0.0
2018-Oct-23 18:24N 54°51' W 005°48'0 0.0
2018-Oct-23 18:03N 54°51' W 005°48'0 0.0
2018-Oct-23 18:00N 54°51' W 005°48'0 0.0
2018-Oct-23 17:30N 54°51' W 005°48'612.5
2018-Oct-23 17:03N 54°54' W 005°40'117.0
2018-Oct-23 17:00N 54°54' W 005°38'816.9
2018-Oct-23 16:30N 54°58' W 005°25'817.3
2018-Oct-23 16:03N 55°01' W 005°13'117.5
2018-Oct-23 16:00N 55°01' W 005°11'713.4
2018-Oct-23 15:31N 54°58' W 005°01'0 0.5
2018-Oct-23 15:03N 54°58' W 005°01'0 0.0
2018-Oct-23 15:00N 54°58' W 005°01'0 0.0
2018-Oct-23 14:31N 54°58' W 005°01'1110.5
2018-Oct-23 13:30N 54°58' W 005°19'817.7
2018-Oct-23 13:03N 54°55' W 005°32'117.3
2018-Oct-23 13:00N 54°55' W 005°33'917.6
2018-Oct-23 12:30N 54°52' W 005°47'1 1.9
2018-Oct-23 12:02N 54°51' W 005°48'0 0.0
2018-Oct-23 11:53N 54°51' W 005°48'0 0.0
2018-Oct-23 11:29N 54°51' W 005°48'3 8.1
2018-Oct-23 11:03N 54°53' W 005°43'118.0
2018-Oct-23 11:00N 54°53' W 005°42'917.9
2018-Oct-23 10:30N 54°57' W 005°28'817.7
2018-Oct-23 10:03N 55°00' W 005°15'117.3
2018-Oct-23 10:00N 55°01' W 005°14'713.2
2018-Oct-23 09:30N 54°59' W 005°03'1 2.7
2018-Oct-23 08:57N 54°58' W 005°01'0 0.0
2018-Oct-23 08:30N 54°58' W 005°01'5 9.8
2018-Oct-23 08:00N 55°02' W 005°06'816.1
2018-Oct-23 07:30N 54°58' W 005°19'817.1
2018-Oct-23 07:03N 54°55' W 005°31'117.5
2018-Oct-23 07:00N 54°55' W 005°33'917.5
2018-Oct-23 06:29N 54°52' W 005°47'1 1.6
2018-Oct-23 05:55N 54°51' W 005°48'0 0.0
2018-Oct-23 05:28N 54°51' W 005°48'0 0.0
2018-Oct-23 05:03N 54°51' W 005°48'0 0.0
2018-Oct-23 05:00N 54°51' W 005°48'612.4
2018-Oct-23 04:30N 54°54' W 005°39'919.5
2018-Oct-23 04:03N 54°58' W 005°25'119.1
2018-Oct-23 04:00N 54°59' W 005°24'1019.1
2018-Oct-23 03:30N 55°02' W 005°08'612.2
2018-Oct-23 03:03N 54°58' W 005°01'0 0.3
2018-Oct-23 03:01N 54°58' W 005°01'0 0.0
2018-Oct-23 02:30N 54°58' W 005°01'0 0.0
2018-Oct-23 02:03N 54°58' W 005°01'0 0.3
2018-Oct-23 02:00N 54°58' W 005°01'0 0.0
2018-Oct-23 01:30N 54°58' W 005°01'0 0.0
2018-Oct-23 01:04N 54°58' W 005°01'0 0.0
2018-Oct-23 01:00N 54°58' W 005°01'6 9.5
2018-Oct-23 00:24N 55°02' W 005°08'718.9
2018-Oct-23 00:03N 54°59' W 005°19'119.1
2018-Oct-23 00:00N 54°58' W 005°20'918.2
2018-Oct-22 23:30N 54°55' W 005°35'817.6
2018-Oct-22 23:03N 54°51' W 005°48'113.2
2018-Oct-22 23:00N 54°51' W 005°48'0 0.2
2018-Oct-22 22:23N 54°51' W 005°48'0 0.0
2018-Oct-22 21:53N 54°51' W 005°48'0 0.0
2018-Oct-22 21:17N 54°51' W 005°48'0 0.0
2018-Oct-22 21:02N 54°51' W 005°48'0 0.0
2018-Oct-22 21:00N 54°51' W 005°48'510.3
2018-Oct-22 20:31N 54°54' W 005°40'817.8
2018-Oct-22 20:03N 54°57' W 005°28'117.2
2018-Oct-22 20:00N 54°58' W 005°27'917.3
2018-Oct-22 19:31N 55°01' W 005°13'613.7
2018-Oct-22 19:04N 54°59' W 005°03'115.0
2018-Oct-22 19:01N 54°58' W 005°02'1 1.6
2018-Oct-22 18:30N 54°58' W 005°01'0 0.0
2018-Oct-22 18:03N 54°58' W 005°01'0 0.0
2018-Oct-22 18:00N 54°58' W 005°01'0 0.1
2018-Oct-22 17:30N 54°58' W 005°01'511.1
2018-Oct-22 17:02N 55°02' W 005°07'017.2
2018-Oct-22 17:00N 55°02' W 005°08'917.6
2018-Oct-22 16:30N 54°58' W 005°22'918.8
2018-Oct-22 16:03N 54°54' W 005°36'118.3
2018-Oct-22 16:00N 54°54' W 005°37'714.1
2018-Oct-22 15:30N 54°51' W 005°48'0 0.1
2018-Oct-22 15:03N 54°51' W 005°48'0 0.0
2018-Oct-22 15:00N 54°51' W 005°48'0 0.0
2018-Oct-22 14:30N 54°51' W 005°48'1413.8
2018-Oct-22 13:31N 54°58' W 005°27'816.9
2018-Oct-22 13:04N 55°01' W 005°15'116.6
2018-Oct-22 13:01N 55°01' W 005°14'713.6
2018-Oct-22 12:31N 54°59' W 005°02'1 2.8
2018-Oct-22 12:02N 54°58' W 005°01'0 0.0
2018-Oct-22 11:59N 54°58' W 005°01'0 0.0
2018-Oct-22 11:30N 54°58' W 005°01'6 9.5
2018-Oct-22 10:55N 55°02' W 005°08'818.3
2018-Oct-22 10:30N 54°58' W 005°20'817.7
2018-Oct-22 10:03N 54°55' W 005°33'117.7
2018-Oct-22 10:01N 54°55' W 005°34'917.1
2018-Oct-22 09:30N 54°51' W 005°48'0 0.3
2018-Oct-22 08:59N 54°51' W 005°48'0 0.0
2018-Oct-22 08:31N 54°51' W 005°48'510.7
2018-Oct-22 08:03N 54°54' W 005°41'118.5
2018-Oct-22 08:00N 54°54' W 005°40'918.1
2018-Oct-22 07:30N 54°58' W 005°26'817.4
2018-Oct-22 07:03N 55°01' W 005°13'117.5
2018-Oct-22 07:00N 55°01' W 005°11'713.4
2018-Oct-22 06:30N 54°58' W 005°01'0 0.3
2018-Oct-22 06:03N 54°58' W 005°01'0 0.0
2018-Oct-22 06:00N 54°58' W 005°01'0 0.0
2018-Oct-22 05:30N 54°58' W 005°01'0 0.0
2018-Oct-22 05:03N 54°58' W 005°01'0 0.3
2018-Oct-22 05:00N 54°58' W 005°01'510.3
2018-Oct-22 04:30N 55°02' W 005°07'716.7
2018-Oct-22 04:03N 54°58' W 005°19'117.6
2018-Oct-22 04:00N 54°58' W 005°20'918.1
2018-Oct-22 03:30N 54°55' W 005°35'817.5
2018-Oct-22 03:03N 54°51' W 005°48'011.9
2018-Oct-22 03:00N 54°51' W 005°48'0 0.4
2018-Oct-22 02:25N 54°51' W 005°48'0 0.0
2018-Oct-22 01:58N 54°51' W 005°48'0 0.0
2018-Oct-22 01:28N 54°51' W 005°48'0 0.0
2018-Oct-22 01:01N 54°51' W 005°48'0 0.2
2018-Oct-22 00:59N 54°51' W 005°48'510.0
2018-Oct-22 00:30N 54°54' W 005°41'715.8
2018-Oct-22 00:04N 54°58' W 005°31'116.3
2018-Oct-22 00:01N 54°58' W 005°30'815.9
2018-Oct-21 23:31N 55°01' W 005°17'814.9
2018-Oct-21 22:57N 54°59' W 005°03'2 4.3
2018-Oct-21 22:30N 54°58' W 005°01'0 0.0
2018-Oct-21 22:03N 54°58' W 005°01'0 0.0
2018-Oct-21 22:00N 54°58' W 005°01'0 0.0
2018-Oct-21 21:30N 54°58' W 005°01'5 5.3
2018-Oct-21 20:30N 55°01' W 005°07'716.5
2018-Oct-21 20:04N 54°58' W 005°19'117.3
2018-Oct-21 20:01N 54°58' W 005°20'917.6
2018-Oct-21 19:31N 54°54' W 005°34'818.0
2018-Oct-21 19:03N 54°51' W 005°48'0 8.8
2018-Oct-21 19:01N 54°51' W 005°48'0 0.2
2018-Oct-21 18:29N 54°51' W 005°48'0 0.0
2018-Oct-21 18:02N 54°51' W 005°48'0 0.1
2018-Oct-21 17:59N 54°51' W 005°48'0 0.0
2018-Oct-21 17:30N 54°51' W 005°48'511.8
2018-Oct-21 17:03N 54°54' W 005°40'117.0
2018-Oct-21 17:00N 54°54' W 005°39'816.4
2018-Oct-21 16:30N 54°58' W 005°26'816.8
2018-Oct-21 16:03N 55°01' W 005°14'117.5
2018-Oct-21 16:00N 55°01' W 005°12'713.8
2018-Oct-21 15:30N 54°58' W 005°02'0 0.9
2018-Oct-21 15:01N 54°58' W 005°01'0 0.0
2018-Oct-21 14:58N 54°58' W 005°01'0 0.0
2018-Oct-21 14:30N 54°58' W 005°01'5 9.5
2018-Oct-21 13:59N 55°01' W 005°07'918.4
2018-Oct-21 13:30N 54°58' W 005°21'818.5
2018-Oct-21 13:03N 54°55' W 005°34'118.6
2018-Oct-21 13:00N 54°55' W 005°35'816.0
2018-Oct-21 12:31N 54°51' W 005°48'0 0.2
2018-Oct-21 12:01N 54°51' W 005°48'0 0.0
2018-Oct-21 11:49N 54°51' W 005°48'0 0.0
2018-Oct-21 11:28N 54°51' W 005°48'0 0.0
2018-Oct-21 11:01N 54°51' W 005°48'0 0.0
2018-Oct-21 10:58N 54°51' W 005°48'0 0.0
2018-Oct-21 10:28N 54°51' W 005°48'0 0.0
2018-Oct-21 10:01N 54°51' W 005°48'0 0.1
2018-Oct-21 09:58N 54°51' W 005°48'0 0.0
2018-Oct-21 09:28N 54°51' W 005°48'0 0.0
2018-Oct-21 09:01N 54°51' W 005°48'0 0.1
2018-Oct-21 08:58N 54°51' W 005°48'0 0.0
2018-Oct-21 08:25N 54°51' W 005°48'2 4.5
2018-Oct-21 08:03N 54°52' W 005°47'117.1
2018-Oct-21 08:00N 54°52' W 005°45'918.0
2018-Oct-21 07:30N 54°56' W 005°31'818.3
2018-Oct-21 07:03N 54°60' W 005°18'118.5
2018-Oct-21 07:01N 54°60' W 005°16'814.6
2018-Oct-21 06:29N 54°59' W 005°03'2 3.7
2018-Oct-21 05:59N 54°58' W 005°01'0 0.0
2018-Oct-21 05:29N 54°58' W 005°01'0 0.0
2018-Oct-21 05:02N 54°58' W 005°01'0 0.2
2018-Oct-21 04:59N 54°58' W 005°01'0 0.0
2018-Oct-21 04:23N 54°58' W 005°01'0 0.0
2018-Oct-21 04:02N 54°58' W 005°01'0 0.1
2018-Oct-21 03:56N 54°58' W 005°01'0 0.0
2018-Oct-21 03:29N 54°58' W 005°01'0 0.0
2018-Oct-21 03:02N 54°58' W 005°01'0 0.2
2018-Oct-21 02:59N 54°58' W 005°01'0 0.0
2018-Oct-21 02:29N 54°58' W 005°01'0 0.0
2018-Oct-21 01:59N 54°58' W 005°01'0 0.0
2018-Oct-21 01:29N 54°58' W 005°01'0 0.0
2018-Oct-21 01:02N 54°58' W 005°01'0 0.2
2018-Oct-21 00:59N 54°58' W 005°01'0 0.0
2018-Oct-21 00:29N 54°58' W 005°01'0 0.0
2018-Oct-20 23:59N 54°58' W 005°01'0 0.0
2018-Oct-20 23:26N 54°58' W 005°01'0 0.0
2018-Oct-20 22:56N 54°58' W 005°01'0 0.0
2018-Oct-20 22:29N 54°58' W 005°01'0 0.0
2018-Oct-20 22:02N 54°58' W 005°01'0 0.0
2018-Oct-20 21:53N 54°58' W 005°01'0 0.0
2018-Oct-20 21:29N 54°58' W 005°01'0 0.0
2018-Oct-20 21:03N 54°58' W 005°01'0 0.5
2018-Oct-20 21:00N 54°58' W 005°01'612.5
2018-Oct-20 20:30N 55°01' W 005°11'920.7
2018-Oct-20 20:03N 54°57' W 005°25'120.6
2018-Oct-20 20:00N 54°56' W 005°26'1020.8
2018-Oct-20 19:30N 54°53' W 005°43'3 7.0
2018-Oct-20 19:03N 54°51' W 005°48'0 0.0
2018-Oct-20 19:00N 54°51' W 005°48'0 0.0
2018-Oct-20 18:30N 54°51' W 005°48'0 0.0
2018-Oct-20 18:03N 54°51' W 005°48'0 0.0
2018-Oct-20 18:00N 54°51' W 005°48'0 0.0
2018-Oct-20 17:30N 54°51' W 005°48'2 4.8
2018-Oct-20 17:04N 54°52' W 005°45'117.2
2018-Oct-20 17:00N 54°53' W 005°44'917.5
2018-Oct-20 16:30N 54°57' W 005°30'817.7
2018-Oct-20 16:03N 54°60' W 005°18'117.6
2018-Oct-20 16:00N 55°00' W 005°16'714.6
2018-Oct-20 15:30N 54°59' W 005°03'2 4.9
2018-Oct-20 15:03N 54°58' W 005°01'0 0.0
2018-Oct-20 14:45N 54°58' W 005°01'0 0.0
2018-Oct-20 14:30N 54°58' W 005°01'1010.3
2018-Oct-20 13:30N 54°59' W 005°19'818.1
2018-Oct-20 13:04N 54°56' W 005°32'118.2
2018-Oct-20 13:00N 54°55' W 005°33'917.8
2018-Oct-20 12:30N 54°52' W 005°48'1 1.5
2018-Oct-20 12:02N 54°51' W 005°48'0 0.0
2018-Oct-20 11:56N 54°51' W 005°48'0 0.0
2018-Oct-20 11:30N 54°51' W 005°48'4 9.5
2018-Oct-20 11:04N 54°53' W 005°42'115.7
2018-Oct-20 11:00N 54°54' W 005°41'816.1
2018-Oct-20 10:30N 54°57' W 005°28'716.6
2018-Oct-20 10:04N 55°00' W 005°16'116.6
2018-Oct-20 10:00N 55°01' W 005°15'713.9
2018-Oct-20 09:30N 54°59' W 005°03'2 3.7
2018-Oct-20 09:02N 54°58' W 005°01'0 0.0
2018-Oct-20 08:56N 54°58' W 005°01'0 0.0
2018-Oct-20 08:29N 54°58' W 005°01'5 9.5
2018-Oct-20 07:57N 55°02' W 005°07'717.1
2018-Oct-20 07:30N 54°59' W 005°19'716.0
2018-Oct-20 07:03N 54°56' W 005°30'116.5
2018-Oct-20 07:00N 54°55' W 005°32'816.8
2018-Oct-20 06:30N 54°52' W 005°45'2 4.0
2018-Oct-20 06:01N 54°51' W 005°48'0 0.0
2018-Oct-20 05:58N 54°51' W 005°48'0 0.0
2018-Oct-20 05:28N 54°51' W 005°48'0 0.0
2018-Oct-20 05:03N 54°51' W 005°48'0 0.1
2018-Oct-20 05:00N 54°51' W 005°48'510.2
2018-Oct-20 04:30N 54°54' W 005°40'816.8
2018-Oct-20 04:03N 54°57' W 005°29'117.1
2018-Oct-20 04:00N 54°57' W 005°27'917.5
2018-Oct-20 03:30N 55°01' W 005°13'613.6
2018-Oct-20 03:03N 54°59' W 005°03'113.4
2018-Oct-20 03:01N 54°59' W 005°02'1 2.3
2018-Oct-20 02:27N 54°58' W 005°01'0 0.0
2018-Oct-20 02:03N 54°58' W 005°01'0 0.0
2018-Oct-20 02:00N 54°58' W 005°01'0 0.0
2018-Oct-20 01:30N 54°58' W 005°01'0 0.0
2018-Oct-20 01:03N 54°58' W 005°01'0 0.2
2018-Oct-20 01:00N 54°58' W 005°01'5 8.7
2018-Oct-20 00:24N 55°02' W 005°07'618.0
2018-Oct-20 00:03N 54°59' W 005°17'119.3
2018-Oct-20 00:00N 54°59' W 005°19'918.5
2018-Oct-19 23:30N 54°55' W 005°33'818.0
2018-Oct-19 23:03N 54°52' W 005°46'116.1
2018-Oct-19 23:01N 54°52' W 005°48'1 1.4
2018-Oct-19 22:28N 54°51' W 005°48'0 0.0
2018-Oct-19 22:01N 54°51' W 005°48'0 0.2
2018-Oct-19 21:58N 54°51' W 005°48'0 0.0
2018-Oct-19 21:28N 54°51' W 005°48'0 0.0
2018-Oct-19 21:01N 54°51' W 005°48'4 8.2
2018-Oct-19 20:30N 54°53' W 005°42'817.9
2018-Oct-19 20:03N 54°57' W 005°30'118.1
2018-Oct-19 20:00N 54°57' W 005°28'917.9
2018-Oct-19 19:30N 55°01' W 005°14'714.5
2018-Oct-19 19:03N 54°59' W 005°03'115.5
2018-Oct-19 19:00N 54°58' W 005°02'1 2.0
2018-Oct-19 18:30N 54°58' W 005°01'0 0.0
2018-Oct-19 18:00N 54°58' W 005°01'0 0.0
2018-Oct-19 17:30N 54°58' W 005°01'5 9.3
2018-Oct-19 16:55N 55°01' W 005°08'717.1
2018-Oct-19 16:30N 54°58' W 005°19'818.0
2018-Oct-19 16:03N 54°55' W 005°32'118.3
2018-Oct-19 16:00N 54°55' W 005°33'917.9
2018-Oct-19 15:30N 54°51' W 005°48'0 0.8
2018-Oct-19 14:59N 54°51' W 005°48'5 4.8
2018-Oct-19 14:00N 54°53' W 005°41'917.3
2018-Oct-19 13:30N 54°57' W 005°28'817.2
2018-Oct-19 13:03N 55°00' W 005°15'117.5
2018-Oct-19 13:00N 55°01' W 005°14'714.0
2018-Oct-19 12:31N 54°59' W 005°02'1 2.3
2018-Oct-19 12:00N 54°58' W 005°01'0 0.0
2018-Oct-19 11:30N 54°58' W 005°01'610.2
2018-Oct-19 10:57N 55°02' W 005°08'818.9
2018-Oct-19 10:30N 54°58' W 005°22'818.4
2018-Oct-19 10:03N 54°55' W 005°35'118.8
2018-Oct-19 10:00N 54°54' W 005°36'714.9
2018-Oct-19 09:30N 54°51' W 005°48'0 0.1
2018-Oct-19 08:58N 54°51' W 005°48'0 0.0
2018-Oct-19 08:30N 54°51' W 005°48'511.9
2018-Oct-19 08:03N 54°54' W 005°40'117.4
2018-Oct-19 08:00N 54°54' W 005°39'917.1
2018-Oct-19 07:30N 54°58' W 005°25'817.0
2018-Oct-19 07:03N 55°01' W 005°13'116.8
2018-Oct-19 07:00N 55°01' W 005°12'713.8
2018-Oct-19 06:30N 54°58' W 005°01'0 0.1
2018-Oct-19 06:03N 54°58' W 005°01'0 0.0
2018-Oct-19 06:00N 54°58' W 005°01'0 0.0
2018-Oct-19 05:30N 54°58' W 005°01'0 0.0
2018-Oct-19 05:03N 54°58' W 005°01'0 0.3
2018-Oct-19 05:00N 54°58' W 005°01'5 9.9
2018-Oct-19 04:30N 55°02' W 005°07'716.8
2018-Oct-19 04:03N 54°58' W 005°19'115.7
2018-Oct-19 04:00N 54°58' W 005°20'816.9
2018-Oct-19 03:31N 54°55' W 005°33'918.8
2018-Oct-19 03:03N 54°52' W 005°47'113.3
2018-Oct-19 02:59N 54°51' W 005°48'0 0.4
2018-Oct-19 02:30N 54°51' W 005°48'0 0.0
2018-Oct-19 02:03N 54°51' W 005°48'0 0.1
2018-Oct-19 02:00N 54°51' W 005°48'0 0.0
2018-Oct-19 01:30N 54°51' W 005°48'0 0.0
2018-Oct-19 01:03N 54°51' W 005°48'0 0.1
2018-Oct-19 01:01N 54°51' W 005°48'4 7.2
2018-Oct-19 00:30N 54°53' W 005°43'817.7
2018-Oct-19 00:03N 54°57' W 005°31'117.2
2018-Oct-19 00:01N 54°58' W 005°30'917.5
2018-Oct-18 23:30N 55°01' W 005°16'714.9
2018-Oct-18 23:01N 54°59' W 005°03'015.7
2018-Oct-18 23:00N 54°59' W 005°03'2 3.4
2018-Oct-18 22:30N 54°58' W 005°01'0 0.0
2018-Oct-18 22:03N 54°58' W 005°01'0 0.0
2018-Oct-18 22:00N 54°58' W 005°01'0 0.0
2018-Oct-18 21:30N 54°58' W 005°01'0 0.0
2018-Oct-18 21:03N 54°58' W 005°01'0 0.0
2018-Oct-18 21:00N 54°58' W 005°01'610.0
2018-Oct-18 20:27N 55°01' W 005°08'717.7
2018-Oct-18 20:03N 54°59' W 005°19'118.5
2018-Oct-18 20:00N 54°58' W 005°20'918.4
2018-Oct-18 19:30N 54°54' W 005°35'817.6
2018-Oct-18 19:03N 54°51' W 005°48'0 2.2
2018-Oct-18 18:52N 54°51' W 005°48'0 0.0
2018-Oct-18 18:25N 54°51' W 005°48'0 0.0
2018-Oct-18 17:58N 54°51' W 005°48'0 0.0
2018-Oct-18 17:30N 54°51' W 005°48'512.0
2018-Oct-18 17:03N 54°54' W 005°40'117.7
2018-Oct-18 17:00N 54°54' W 005°39'917.4
2018-Oct-18 16:30N 54°58' W 005°25'817.6
2018-Oct-18 16:03N 55°01' W 005°12'117.8
2018-Oct-18 16:00N 55°01' W 005°11'713.6
2018-Oct-18 15:30N 54°58' W 005°01'0 0.0
2018-Oct-18 15:00N 54°58' W 005°01'0 0.0
2018-Oct-18 14:31N 54°58' W 005°01'510.1
2018-Oct-18 14:00N 55°01' W 005°07'917.7
2018-Oct-18 13:31N 54°58' W 005°21'818.1
2018-Oct-18 13:03N 54°55' W 005°34'118.2
2018-Oct-18 13:01N 54°55' W 005°35'816.0
2018-Oct-18 12:31N 54°51' W 005°48'0 0.2
2018-Oct-18 12:03N 54°51' W 005°48'0 0.0
2018-Oct-18 12:00N 54°51' W 005°48'0 0.0
2018-Oct-18 11:30N 54°51' W 005°48'511.0
2018-Oct-18 11:03N 54°54' W 005°41'119.2
2018-Oct-18 11:00N 54°54' W 005°39'918.6
2018-Oct-18 10:30N 54°58' W 005°24'818.6
2018-Oct-18 10:03N 55°01' W 005°11'118.4
2018-Oct-18 10:00N 55°02' W 005°10'612.4
2018-Oct-18 09:29N 54°58' W 005°01'0 0.0
2018-Oct-18 08:58N 54°58' W 005°01'0 0.0
2018-Oct-18 08:30N 54°58' W 005°01'610.4
2018-Oct-18 07:57N 55°02' W 005°08'818.1
2018-Oct-18 07:31N 54°58' W 005°21'818.3
2018-Oct-18 07:03N 54°55' W 005°34'118.0
2018-Oct-18 07:00N 54°54' W 005°36'815.7
2018-Oct-18 06:31N 54°51' W 005°48'0 0.1
2018-Oct-18 06:01N 54°51' W 005°48'0 0.1
2018-Oct-18 05:58N 54°51' W 005°48'0 0.0
2018-Oct-18 05:28N 54°51' W 005°48'0 0.0
2018-Oct-18 04:58N 54°51' W 005°48'4 9.4
2018-Oct-18 04:30N 54°53' W 005°42'920.0
2018-Oct-18 04:03N 54°57' W 005°28'120.0
2018-Oct-18 04:00N 54°58' W 005°26'1020.0
2018-Oct-18 03:30N 55°01' W 005°10'613.7
2018-Oct-18 03:03N 54°58' W 005°01'0 0.4
2018-Oct-18 02:56N 54°58' W 005°01'0 0.0
2018-Oct-18 02:29N 54°58' W 005°01'0 0.0
2018-Oct-18 02:02N 54°58' W 005°01'0 0.0
2018-Oct-18 01:56N 54°58' W 005°01'0 0.0
2018-Oct-18 01:29N 54°58' W 005°01'0 0.0
2018-Oct-18 01:00N 54°58' W 005°01'510.6
2018-Oct-18 00:30N 55°02' W 005°07'817.5
2018-Oct-18 00:03N 54°58' W 005°20'118.0
2018-Oct-18 00:00N 54°58' W 005°21'918.1
2018-Oct-17 23:31N 54°54' W 005°36'817.1
2018-Oct-17 23:03N 54°51' W 005°48'0 2.1
2018-Oct-17 22:58N 54°51' W 005°48'0 0.0
2018-Oct-17 22:25N 54°51' W 005°48'0 0.0
2018-Oct-17 22:01N 54°51' W 005°48'0 0.0
2018-Oct-17 21:58N 54°51' W 005°48'0 0.0
2018-Oct-17 21:28N 54°51' W 005°48'0 0.0
2018-Oct-17 21:01N 54°51' W 005°48'0 0.0
2018-Oct-17 20:59N 54°51' W 005°48'510.0
2018-Oct-17 20:30N 54°53' W 005°41'817.9
2018-Oct-17 20:03N 54°57' W 005°29'117.9
2018-Oct-17 20:00N 54°58' W 005°28'917.7
2018-Oct-17 19:30N 55°01' W 005°13'714.5
2018-Oct-17 19:03N 54°59' W 005°03'116.9
2018-Oct-17 19:00N 54°58' W 005°02'1 1.0
2018-Oct-17 18:22N 54°58' W 005°01'0 0.0
2018-Oct-17 17:59N 54°58' W 005°01'0 0.0
2018-Oct-17 17:30N 54°58' W 005°01'510.2
2018-Oct-17 17:01N 55°01' W 005°07'017.2
2018-Oct-17 17:00N 55°01' W 005°07'917.6
2018-Oct-17 16:30N 54°58' W 005°21'818.4
2018-Oct-17 16:03N 54°55' W 005°34'118.8
2018-Oct-17 16:01N 54°54' W 005°36'815.7
2018-Oct-17 15:31N 54°51' W 005°48'0 0.1
2018-Oct-17 14:58N 54°51' W 005°48'5 5.1
2018-Oct-17 14:00N 54°54' W 005°41'917.4
2018-Oct-17 13:30N 54°57' W 005°27'817.5
2018-Oct-17 13:03N 55°01' W 005°15'117.6
2018-Oct-17 13:00N 55°01' W 005°13'713.7
2018-Oct-17 12:31N 54°59' W 005°02'1 2.4
2018-Oct-17 12:03N 54°58' W 005°01'0 0.0
2018-Oct-17 12:00N 54°58' W 005°01'0 0.0
2018-Oct-17 11:31N 54°58' W 005°01'5 9.5
2018-Oct-17 10:58N 55°01' W 005°07'817.7
2018-Oct-17 10:30N 54°58' W 005°20'818.1
2018-Oct-17 10:03N 54°55' W 005°33'118.3
2018-Oct-17 10:00N 54°55' W 005°35'816.9
2018-Oct-17 09:30N 54°51' W 005°48'0 0.3
2018-Oct-17 09:03N 54°51' W 005°48'0 0.0
2018-Oct-17 09:00N 54°51' W 005°48'0 0.0
2018-Oct-17 08:30N 54°51' W 005°48'510.2
2018-Oct-17 08:03N 54°53' W 005°41'117.8
2018-Oct-17 08:01N 54°54' W 005°40'917.5
2018-Oct-17 07:31N 54°58' W 005°26'817.4
2018-Oct-17 07:04N 55°01' W 005°14'117.1
2018-Oct-17 07:01N 55°01' W 005°12'714.2
2018-Oct-17 06:30N 54°58' W 005°01'0 0.7
2018-Oct-17 06:03N 54°58' W 005°01'0 0.0
2018-Oct-17 06:00N 54°58' W 005°01'0 0.0
2018-Oct-17 05:31N 54°58' W 005°01'0 0.0
2018-Oct-17 05:02N 54°58' W 005°01'0 0.0
2018-Oct-17 05:00N 54°58' W 005°01'6 9.2
2018-Oct-17 04:23N 55°02' W 005°08'617.4
2018-Oct-17 04:03N 54°59' W 005°17'118.1
2018-Oct-17 04:00N 54°58' W 005°18'918.3
2018-Oct-17 03:30N 54°55' W 005°33'919.0
2018-Oct-17 03:03N 54°52' W 005°47'114.6
2018-Oct-17 03:00N 54°51' W 005°48'1 1.1
2018-Oct-17 02:30N 54°51' W 005°48'0 0.0
2018-Oct-17 02:03N 54°51' W 005°48'0 0.0
2018-Oct-17 02:00N 54°51' W 005°48'0 0.0
2018-Oct-17 01:30N 54°51' W 005°48'0 0.0
2018-Oct-17 01:03N 54°51' W 005°48'0 0.0
2018-Oct-17 01:00N 54°51' W 005°48'5 9.0
2018-Oct-17 00:30N 54°53' W 005°41'817.4
2018-Oct-17 00:03N 54°57' W 005°29'117.6
2018-Oct-17 00:01N 54°57' W 005°28'917.6
2018-Oct-16 23:31N 55°01' W 005°14'613.6
2018-Oct-16 23:03N 54°59' W 005°03'012.4
2018-Oct-16 23:00N 54°59' W 005°02'1 2.8
2018-Oct-16 22:30N 54°58' W 005°01'0 0.0
2018-Oct-16 22:03N 54°58' W 005°01'0 0.0
2018-Oct-16 22:00N 54°58' W 005°01'0 0.0
2018-Oct-16 21:30N 54°58' W 005°01'0 0.0
2018-Oct-16 21:03N 54°58' W 005°01'0 0.7
2018-Oct-16 21:00N 54°58' W 005°01'611.2
2018-Oct-16 20:30N 55°02' W 005°08'817.1
2018-Oct-16 20:04N 54°58' W 005°20'118.3
2018-Oct-16 20:01N 54°58' W 005°21'917.7
2018-Oct-16 19:31N 54°55' W 005°36'816.9
2018-Oct-16 19:03N 54°51' W 005°48'0 6.7
2018-Oct-16 19:00N 54°51' W 005°48'0 0.2
2018-Oct-16 18:29N 54°51' W 005°48'0 0.0
2018-Oct-16 17:56N 54°51' W 005°48'0 0.0
2018-Oct-16 17:29N 54°51' W 005°48'511.1
2018-Oct-16 17:03N 54°53' W 005°41'117.5
2018-Oct-16 17:00N 54°54' W 005°40'917.2
2018-Oct-16 16:30N 54°58' W 005°26'817.2
2018-Oct-16 16:03N 55°01' W 005°14'117.3
2018-Oct-16 16:00N 55°01' W 005°13'714.0
2018-Oct-16 15:31N 54°58' W 005°01'0 0.9
2018-Oct-16 15:00N 54°58' W 005°01'0 0.0
2018-Oct-16 14:30N 54°58' W 005°01'5 9.4
2018-Oct-16 13:59N 55°02' W 005°07'818.1
2018-Oct-16 13:31N 54°58' W 005°20'919.0
2018-Oct-16 13:03N 54°55' W 005°34'119.6
2018-Oct-16 13:00N 54°55' W 005°36'815.9
2018-Oct-16 12:30N 54°51' W 005°48'0 0.2
2018-Oct-16 12:02N 54°51' W 005°48'0 0.0
2018-Oct-16 11:59N 54°51' W 005°48'0 0.0
2018-Oct-16 11:30N 54°51' W 005°48'4 9.9
2018-Oct-16 11:03N 54°53' W 005°42'117.3
2018-Oct-16 11:00N 54°54' W 005°40'917.2
2018-Oct-16 10:31N 54°57' W 005°27'817.1
2018-Oct-16 10:03N 55°01' W 005°15'117.1
2018-Oct-16 10:00N 55°01' W 005°13'713.1
2018-Oct-16 09:31N 54°59' W 005°03'2 3.4
2018-Oct-16 09:04N 54°58' W 005°01'0 0.0
2018-Oct-16 09:00N 54°58' W 005°01'0 0.0
2018-Oct-16 08:30N 54°58' W 005°01'5 8.4
2018-Oct-16 07:52N 55°02' W 005°07'720.0
2018-Oct-16 07:30N 54°59' W 005°19'919.9
2018-Oct-16 07:03N 54°54' W 005°33'119.8
2018-Oct-16 07:01N 54°54' W 005°34'816.2
2018-Oct-16 06:30N 54°51' W 005°48'0 0.7
2018-Oct-16 06:03N 54°51' W 005°48'0 0.0
2018-Oct-16 06:00N 54°51' W 005°48'0 0.0
2018-Oct-16 05:30N 54°51' W 005°48'0 0.0
2018-Oct-16 05:03N 54°51' W 005°48'0 0.0
2018-Oct-16 05:00N 54°51' W 005°48'5 9.3
2018-Oct-16 04:30N 54°54' W 005°41'817.3
2018-Oct-16 04:03N 54°57' W 005°29'117.2
2018-Oct-16 04:00N 54°57' W 005°28'917.6
2018-Oct-16 03:30N 55°01' W 005°14'714.3
2018-Oct-16 03:03N 54°59' W 005°03'115.1
2018-Oct-16 03:00N 54°59' W 005°02'1 2.5
2018-Oct-16 02:30N 54°58' W 005°01'0 0.0
2018-Oct-16 02:03N 54°58' W 005°01'0 0.0
2018-Oct-16 02:00N 54°58' W 005°01'0 0.0
2018-Oct-16 01:30N 54°58' W 005°01'0 0.0
2018-Oct-16 01:03N 54°58' W 005°01'0 0.9
2018-Oct-16 01:00N 54°58' W 005°01'611.4
2018-Oct-16 00:30N 55°02' W 005°08'817.3
2018-Oct-16 00:04N 54°58' W 005°20'118.0
2018-Oct-16 00:01N 54°58' W 005°22'918.0
2018-Oct-15 23:30N 54°54' W 005°36'716.4
2018-Oct-15 23:03N 54°51' W 005°48'0 1.0
2018-Oct-15 23:00N 54°51' W 005°48'0 0.1
2018-Oct-15 22:30N 54°51' W 005°48'0 0.0
2018-Oct-15 22:03N 54°51' W 005°48'0 0.0
2018-Oct-15 22:00N 54°51' W 005°48'0 0.0
2018-Oct-15 21:30N 54°51' W 005°48'0 0.0
2018-Oct-15 21:03N 54°51' W 005°48'0 0.0
2018-Oct-15 21:00N 54°51' W 005°48'4 8.0
2018-Oct-15 20:30N 54°53' W 005°42'818.2
2018-Oct-15 20:03N 54°57' W 005°30'118.3
2018-Oct-15 20:00N 54°57' W 005°28'918.0
2018-Oct-15 19:30N 55°01' W 005°14'714.7
2018-Oct-15 19:03N 54°59' W 005°03'116.1
2018-Oct-15 19:00N 54°58' W 005°02'1 1.7
2018-Oct-15 18:30N 54°58' W 005°01'0 0.0
2018-Oct-15 18:03N 54°58' W 005°01'0 0.0
2018-Oct-15 18:00N 54°58' W 005°01'0 0.0
2018-Oct-15 17:30N 54°58' W 005°01'510.7
2018-Oct-15 17:00N 55°01' W 005°08'1019.6
2018-Oct-15 16:31N 54°58' W 005°23'919.8
2018-Oct-15 16:04N 54°54' W 005°37'119.3
2018-Oct-15 16:00N 54°54' W 005°39'611.9
2018-Oct-15 15:30N 54°51' W 005°48'0 0.0
2018-Oct-15 15:01N 54°51' W 005°48'0 0.0
2018-Oct-15 14:55N 54°51' W 005°48'0 0.0
2018-Oct-15 14:29N 54°51' W 005°48'511.0
2018-Oct-15 14:01N 54°54' W 005°40'917.7
2018-Oct-15 13:30N 54°58' W 005°26'817.9
2018-Oct-15 13:03N 55°02' W 005°14'118.2
2018-Oct-15 13:00N 55°02' W 005°13'714.3
2018-Oct-15 12:30N 54°58' W 005°02'1 1.4
2018-Oct-15 12:02N 54°58' W 005°01'0 0.0
2018-Oct-15 11:53N 54°58' W 005°01'0 0.0
2018-Oct-15 11:30N 54°58' W 005°01'5 9.2
2018-Oct-15 10:58N 55°01' W 005°07'817.0
2018-Oct-15 10:30N 54°58' W 005°19'817.9
2018-Oct-15 10:03N 54°55' W 005°32'118.7
2018-Oct-15 10:00N 54°55' W 005°34'917.5
2018-Oct-15 09:30N 54°51' W 005°48'0 0.8
2018-Oct-15 09:02N 54°51' W 005°48'0 0.0
2018-Oct-15 08:59N 54°51' W 005°48'0 0.0
2018-Oct-15 08:29N 54°51' W 005°48'3 6.2
2018-Oct-15 08:03N 54°53' W 005°45'118.4
2018-Oct-15 08:00N 54°53' W 005°43'816.6
2018-Oct-15 07:30N 54°57' W 005°30'817.9
2018-Oct-15 07:03N 55°00' W 005°17'118.1
2018-Oct-15 07:01N 55°00' W 005°16'814.9
2018-Oct-15 06:30N 54°59' W 005°03'2 4.2
2018-Oct-15 06:03N 54°58' W 005°01'0 0.0
2018-Oct-15 06:00N 54°58' W 005°01'0 0.0
2018-Oct-15 05:30N 54°58' W 005°01'0 0.0
2018-Oct-15 05:03N 54°58' W 005°01'0 1.4
2018-Oct-15 05:00N 54°58' W 005°01'611.2
2018-Oct-15 04:30N 55°02' W 005°08'818.2
2018-Oct-15 04:03N 54°58' W 005°21'118.2
2018-Oct-15 04:00N 54°58' W 005°22'917.8
2018-Oct-15 03:30N 54°54' W 005°37'715.7
2018-Oct-15 03:03N 54°51' W 005°48'0 1.5
2018-Oct-15 03:00N 54°51' W 005°48'0 0.2
2018-Oct-15 02:30N 54°51' W 005°48'0 0.0
2018-Oct-15 02:03N 54°51' W 005°48'0 0.1
2018-Oct-15 02:00N 54°51' W 005°48'0 0.0
2018-Oct-15 01:30N 54°51' W 005°48'0 0.0
2018-Oct-15 01:03N 54°51' W 005°48'0 0.0
2018-Oct-15 01:00N 54°51' W 005°48'4 7.1
2018-Oct-15 00:30N 54°53' W 005°43'715.0
2018-Oct-15 00:03N 54°56' W 005°32'115.8
2018-Oct-15 00:00N 54°56' W 005°31'917.5
2018-Oct-14 23:31N 54°60' W 005°17'814.1
2018-Oct-14 22:56N 54°59' W 005°03'2 4.6
2018-Oct-14 22:30N 54°58' W 005°01'0 0.0
2018-Oct-14 22:03N 54°58' W 005°01'0 0.0
2018-Oct-14 22:00N 54°58' W 005°01'0 0.0
2018-Oct-14 21:30N 54°58' W 005°01'0 0.0
2018-Oct-14 21:03N 54°58' W 005°01'0 1.6
2018-Oct-14 21:00N 54°58' W 005°01'611.1
2018-Oct-14 20:30N 55°02' W 005°08'817.4
2018-Oct-14 20:03N 54°58' W 005°20'118.1
2018-Oct-14 20:00N 54°58' W 005°22'918.0
2018-Oct-14 19:30N 54°55' W 005°36'716.5
2018-Oct-14 19:03N 54°51' W 005°48'0 3.1
2018-Oct-14 19:01N 54°51' W 005°48'0 0.1
2018-Oct-14 18:29N 54°51' W 005°48'0 0.0
2018-Oct-14 18:02N 54°51' W 005°48'0 0.0
2018-Oct-14 17:56N 54°51' W 005°48'0 0.0
2018-Oct-14 17:27N 54°51' W 005°48'4 9.4
2018-Oct-14 17:03N 54°53' W 005°43'118.8
2018-Oct-14 17:00N 54°53' W 005°41'918.7
2018-Oct-14 16:30N 54°57' W 005°27'818.1
2018-Oct-14 16:03N 55°01' W 005°14'117.5
2018-Oct-14 16:00N 55°01' W 005°12'714.3
2018-Oct-14 15:30N 54°58' W 005°01'0 0.5
2018-Oct-14 15:02N 54°58' W 005°01'0 0.0
2018-Oct-14 14:59N 54°58' W 005°01'0 0.0
2018-Oct-14 14:29N 54°58' W 005°01'5 8.8
2018-Oct-14 13:53N 55°02' W 005°07'819.9
2018-Oct-14 13:31N 54°58' W 005°19'920.2
2018-Oct-14 13:03N 54°55' W 005°34'120.2
2018-Oct-14 13:01N 54°54' W 005°36'815.8
2018-Oct-14 12:31N 54°51' W 005°48'0 0.1
2018-Oct-14 12:02N 54°51' W 005°48'0 0.1
2018-Oct-14 11:56N 54°51' W 005°48'0 0.0
2018-Oct-14 11:26N 54°51' W 005°48'0 0.0
2018-Oct-14 10:56N 54°51' W 005°48'0 0.0
2018-Oct-14 10:17N 54°51' W 005°48'0 0.0
2018-Oct-14 10:02N 54°51' W 005°48'0 0.2
2018-Oct-14 09:59N 54°51' W 005°48'0 0.0
2018-Oct-14 09:29N 54°51' W 005°48'0 0.0
2018-Oct-14 09:02N 54°51' W 005°48'0 0.1
2018-Oct-14 08:59N 54°51' W 005°48'0 0.0
2018-Oct-14 08:29N 54°51' W 005°48'2 5.6
2018-Oct-14 08:03N 54°53' W 005°45'118.2
2018-Oct-14 08:00N 54°53' W 005°43'918.1
2018-Oct-14 07:30N 54°57' W 005°29'817.6
2018-Oct-14 07:03N 55°00' W 005°17'117.6
2018-Oct-14 07:00N 55°00' W 005°15'714.6
2018-Oct-14 06:30N 54°59' W 005°03'2 4.0
2018-Oct-14 06:03N 54°58' W 005°01'0 0.0
2018-Oct-14 06:00N 54°58' W 005°01'0 0.0
2018-Oct-14 05:30N 54°58' W 005°01'0 0.0
2018-Oct-14 05:03N 54°58' W 005°01'0 0.0
2018-Oct-14 05:00N 54°58' W 005°01'0 0.0
2018-Oct-14 04:30N 54°58' W 005°01'  

Dump ship's entire track history